createdAt,value
2019-01-16T00:01:13.157Z,1.73
2019-01-16T00:03:51.253Z,2.57
2019-01-16T00:06:41.813Z,3.63
2019-01-16T00:09:19.753Z,1.93
2019-01-16T00:11:55.150Z,2.40
2019-01-16T00:14:46.772Z,1.70
2019-01-16T00:17:22.118Z,2.47
2019-01-16T00:19:59.964Z,1.60
2019-01-16T00:22:51.286Z,2.37
2019-01-16T00:25:26.611Z,3.03
2019-01-16T00:28:01.903Z,3.43
2019-01-16T00:30:43.331Z,4.23
2019-01-16T00:33:21.307Z,2.33
2019-01-16T00:36:13.483Z,1.23
2019-01-16T00:39:00.929Z,1.30
2019-01-16T00:41:36.171Z,3.30
2019-01-16T00:44:14.347Z,2.03
2019-01-16T00:46:52.281Z,3.13
2019-01-16T00:49:42.908Z,3.27
2019-01-16T00:52:18.162Z,1.47
2019-01-16T00:54:56.127Z,2.77
2019-01-16T00:57:31.578Z,2.60
2019-01-16T01:00:21.498Z,0.80
2019-01-16T01:02:56.841Z,2.77
2019-01-16T01:05:35.007Z,2.40
2019-01-16T01:08:10.485Z,1.83
2019-01-16T01:10:50.128Z,2.97
2019-01-16T01:13:25.435Z,4.27
2019-01-16T01:16:12.568Z,1.77
2019-01-16T01:18:47.934Z,4.83
2019-01-16T01:21:29.258Z,2.37
2019-01-16T01:24:04.656Z,4.10
2019-01-16T01:26:56.046Z,2.00
2019-01-16T01:29:37.347Z,4.27
2019-01-16T01:32:18.245Z,2.83
2019-01-16T01:34:59.621Z,4.23
2019-01-16T01:37:43.595Z,1.70
2019-01-16T01:40:24.507Z,2.90
2019-01-16T01:43:11.723Z,2.37
2019-01-16T01:46:03.087Z,2.57
2019-01-16T01:48:40.155Z,2.73
2019-01-16T01:51:17.854Z,5.73
2019-01-16T01:53:53.132Z,2.57
2019-01-16T01:56:28.405Z,1.00
2019-01-16T01:59:03.668Z,3.97
2019-01-16T02:01:50.871Z,4.57
2019-01-16T02:04:28.732Z,2.00
2019-01-16T02:07:06.775Z,3.83
2019-01-16T02:10:00.172Z,1.87
2019-01-16T02:12:38.068Z,4.90
2019-01-16T02:15:16.957Z,3.43
2019-01-16T02:17:54.909Z,3.70
2019-01-16T02:20:42.372Z,4.63
2019-01-16T02:23:17.729Z,5.17
2019-01-16T02:26:08.255Z,3.07
2019-01-16T02:28:55.582Z,4.60
2019-01-16T02:31:30.943Z,4.73
2019-01-16T02:34:11.916Z,2.63
2019-01-16T02:36:49.799Z,2.20
2019-01-16T02:39:30.858Z,5.40
2019-01-16T02:42:09.052Z,4.07
2019-01-16T02:44:50.371Z,5.10
2019-01-16T02:47:34.406Z,3.50
2019-01-16T02:50:22.252Z,3.87
2019-01-16T02:53:03.128Z,5.13
2019-01-16T02:55:38.549Z,5.73
2019-01-16T02:58:13.796Z,7.13
2019-01-16T03:00:51.572Z,5.10
2019-01-16T03:03:29.886Z,7.27
2019-01-16T03:06:17.037Z,7.30
2019-01-16T03:08:52.358Z,4.83
2019-01-16T03:11:27.686Z,4.03
2019-01-16T03:14:05.699Z,4.97
2019-01-16T03:16:46.769Z,4.60
2019-01-16T03:19:40.484Z,5.77
2019-01-16T03:22:32.019Z,6.13
2019-01-16T03:25:08.517Z,7.33
2019-01-16T03:27:46.384Z,6.70
2019-01-16T03:30:21.688Z,4.73
2019-01-16T03:33:11.903Z,7.83
2019-01-16T03:35:47.190Z,4.60
2019-01-16T03:38:28.248Z,6.97
2019-01-16T03:41:09.519Z,4.50
2019-01-16T03:44:01.335Z,6.40
2019-01-16T03:46:39.702Z,4.90
2019-01-16T03:49:14.961Z,7.70
2019-01-16T03:51:56.124Z,4.63
2019-01-16T03:54:37.580Z,5.73
2019-01-16T03:57:27.835Z,5.77
2019-01-16T04:00:09.056Z,6.73
2019-01-16T04:02:56.510Z,4.07
2019-01-16T04:05:43.766Z,4.77
2019-01-16T04:08:19.142Z,8.27
2019-01-16T04:11:00.576Z,9.23
2019-01-16T04:13:35.889Z,6.90
2019-01-16T04:16:16.914Z,4.07
2019-01-16T04:18:54.790Z,8.17
2019-01-16T04:21:35.718Z,6.53
2019-01-16T04:24:29.059Z,7.87
2019-01-16T04:27:04.427Z,6.40
2019-01-16T04:29:42.400Z,4.73
2019-01-16T04:32:17.684Z,6.57
2019-01-16T04:34:55.932Z,4.77
2019-01-16T04:37:31.219Z,5.13
2019-01-16T04:40:24.175Z,6.67
2019-01-16T04:43:02.148Z,7.40
2019-01-16T04:45:40.016Z,4.73
2019-01-16T04:48:15.306Z,7.90
2019-01-16T04:51:06.929Z,7.80
2019-01-16T04:53:42.196Z,9.27
2019-01-16T04:56:35.515Z,5.23
2019-01-16T04:59:13.354Z,6.53
2019-01-16T05:01:57.088Z,9.93
2019-01-16T05:04:38.746Z,5.60
2019-01-16T05:07:25.908Z,6.93
2019-01-16T05:10:04.246Z,6.07
2019-01-16T05:12:48.459Z,6.37
2019-01-16T05:15:23.951Z,5.17
2019-01-16T05:17:59.289Z,8.33
2019-01-16T05:20:43.586Z,7.20
2019-01-16T05:23:35.470Z,7.37
2019-01-16T05:26:10.846Z,8.93
2019-01-16T05:28:46.100Z,10.73
2019-01-16T05:31:27.452Z,13.83
2019-01-16T05:34:05.140Z,12.20
2019-01-16T05:36:46.357Z,12.23
2019-01-16T05:39:24.156Z,10.97
2019-01-16T05:42:05.496Z,11.60
2019-01-16T05:44:40.787Z,17.33
2019-01-16T05:47:16.028Z,16.53
2019-01-16T05:49:57.077Z,22.70
2019-01-16T05:52:34.898Z,15.30
2019-01-16T05:55:22.156Z,17.10
2019-01-16T05:58:09.280Z,19.50
2019-01-16T06:00:45.036Z,18.83
2019-01-16T06:03:26.014Z,18.00
2019-01-16T06:06:04.213Z,17.70
2019-01-16T06:08:51.190Z,19.00
2019-01-16T06:11:29.089Z,22.67
2019-01-16T06:14:04.314Z,19.17
2019-01-16T06:16:39.584Z,25.87
2019-01-16T06:19:14.815Z,25.70
2019-01-16T06:22:02.229Z,25.53
2019-01-16T06:24:40.146Z,27.07
2019-01-16T06:27:17.968Z,30.43
2019-01-16T06:29:53.210Z,28.03
2019-01-16T06:32:37.291Z,22.23
2019-01-16T06:35:15.284Z,22.67
2019-01-16T06:37:50.535Z,26.33
2019-01-16T06:40:31.447Z,31.57
2019-01-16T06:43:18.925Z,26.87
2019-01-16T06:46:10.623Z,19.90
2019-01-16T06:48:51.555Z,29.77
2019-01-16T06:51:26.771Z,32.40
2019-01-16T06:54:04.901Z,38.47
2019-01-16T06:56:40.131Z,31.37
2019-01-16T06:59:15.493Z,31.10
2019-01-16T07:01:50.691Z,31.97
2019-01-16T07:04:34.610Z,34.57
2019-01-16T07:07:09.985Z,28.43
2019-01-16T07:09:47.719Z,20.73
2019-01-16T07:12:34.790Z,36.90
2019-01-16T07:15:18.115Z,30.53
2019-01-16T07:17:53.387Z,33.17
2019-01-16T07:20:34.647Z,38.63
2019-01-16T07:23:12.716Z,36.93
2019-01-16T07:25:48.043Z,33.23
2019-01-16T07:28:25.961Z,35.70
2019-01-16T07:31:01.229Z,50.67
2019-01-16T07:33:36.453Z,37.70
2019-01-16T07:36:26.907Z,51.23
2019-01-16T07:39:02.217Z,35.13
2019-01-16T07:41:37.407Z,32.83
2019-01-16T07:44:24.713Z,39.10
2019-01-16T07:47:18.042Z,28.27
2019-01-16T07:50:16.883Z,33.67
2019-01-16T07:52:46.431Z,31.50
2019-01-16T07:55:33.685Z,33.80
2019-01-16T07:58:08.955Z,41.90
2019-01-16T08:00:44.211Z,28.10
2019-01-16T08:03:28.615Z,32.63
2019-01-16T08:06:13.004Z,51.10
2019-01-16T08:08:57.150Z,35.07
2019-01-16T08:11:38.407Z,36.87
2019-01-16T08:14:13.920Z,27.23
2019-01-16T08:16:54.761Z,30.03
2019-01-16T08:19:30.027Z,35.30
2019-01-16T08:22:08.121Z,42.73
2019-01-16T08:24:43.461Z,60.27
2019-01-16T08:27:36.931Z,48.93
2019-01-16T08:30:19.011Z,50.87
2019-01-16T08:32:56.971Z,53.63
2019-01-16T08:35:32.252Z,66.73
2019-01-16T08:38:07.707Z,65.00
2019-01-16T08:40:45.931Z,65.43
2019-01-16T08:43:21.217Z,72.30
2019-01-16T08:46:02.530Z,59.80
2019-01-16T08:48:40.477Z,61.33
2019-01-16T08:51:15.793Z,53.60
2019-01-16T08:53:51.017Z,58.13
2019-01-16T08:56:29.043Z,55.93
2019-01-16T08:59:20.537Z,51.23
2019-01-16T09:01:55.797Z,54.53
2019-01-16T09:04:47.502Z,52.73
2019-01-16T09:07:34.620Z,56.73
2019-01-16T09:10:28.537Z,50.63
2019-01-16T09:13:20.185Z,50.43
2019-01-16T09:16:13.722Z,56.70
2019-01-16T09:18:49.157Z,51.67
2019-01-16T09:21:30.280Z,50.83
2019-01-16T09:24:17.718Z,50.63
2019-01-16T09:26:53.017Z,51.10
2019-01-16T09:29:44.412Z,47.17
2019-01-16T09:32:22.109Z,36.77
2019-01-16T09:35:02.990Z,49.80
2019-01-16T09:37:40.781Z,48.57
2019-01-16T09:40:16.690Z,43.77
2019-01-16T09:42:57.715Z,35.77
2019-01-16T09:45:49.239Z,35.97
2019-01-16T09:48:36.666Z,41.20
2019-01-16T09:54:19.271Z,34.63
2019-01-16T09:57:03.807Z,51.53
2019-01-16T09:59:42.559Z,35.20
2019-01-16T10:02:34.280Z,37.53
2019-01-16T10:05:16.324Z,37.47
2019-01-16T10:08:06.321Z,41.73
2019-01-16T10:10:56.538Z,32.77
2019-01-16T10:13:44.194Z,35.10
2019-01-16T10:16:19.559Z,29.83
2019-01-16T10:19:00.929Z,30.63
2019-01-16T10:21:37.555Z,31.73
2019-01-16T10:24:19.373Z,28.23
2019-01-16T10:27:06.440Z,26.63
2019-01-16T10:29:50.837Z,30.37
2019-01-16T10:32:31.841Z,21.70
2019-01-16T10:35:24.721Z,15.00
2019-01-16T10:38:05.893Z,25.57
2019-01-16T10:40:57.477Z,16.23
2019-01-16T10:43:35.488Z,13.73
2019-01-16T10:46:13.858Z,15.90
2019-01-16T10:48:55.033Z,13.17
2019-01-16T10:51:30.460Z,18.30
2019-01-16T10:54:15.205Z,18.10
2019-01-16T10:56:56.590Z,10.63
2019-01-16T10:59:34.334Z,14.27
2019-01-16T11:02:12.502Z,14.87
2019-01-16T11:05:05.874Z,17.57
2019-01-16T11:07:46.735Z,16.63
2019-01-16T11:10:25.007Z,12.07
2019-01-16T11:13:03.910Z,14.43
2019-01-16T11:15:39.466Z,9.17
2019-01-16T11:18:17.621Z,9.87
2019-01-16T11:20:52.914Z,7.10
2019-01-16T11:23:44.672Z,8.87
2019-01-16T11:26:19.956Z,30.10
2019-01-16T11:28:57.725Z,15.73
2019-01-16T11:31:42.014Z,8.97
2019-01-16T11:34:23.246Z,13.70
2019-01-16T11:37:01.050Z,13.37
2019-01-16T11:39:48.346Z,18.67
2019-01-16T11:42:29.492Z,12.37
2019-01-16T11:45:04.798Z,11.20
2019-01-16T11:47:42.769Z,11.87
2019-01-16T11:50:23.678Z,11.73
2019-01-16T11:53:01.819Z,12.53
2019-01-16T11:55:53.013Z,9.23
2019-01-16T11:58:37.359Z,17.33
2019-01-16T12:01:15.318Z,24.43
2019-01-16T12:03:59.708Z,25.90
2019-01-16T12:06:51.723Z,13.97
2019-01-16T12:09:30.097Z,11.63
2019-01-16T12:12:24.064Z,13.07
2019-01-16T12:15:08.382Z,18.60
2019-01-16T12:17:43.612Z,19.90
2019-01-16T12:20:19.205Z,17.07
2019-01-16T12:22:54.748Z,12.83
2019-01-16T12:25:38.968Z,13.00
2019-01-16T12:28:23.258Z,8.90
2019-01-16T12:31:10.805Z,9.03
2019-01-16T12:33:46.341Z,7.10
2019-01-16T12:36:37.976Z,9.30
2019-01-16T12:39:13.269Z,8.30
2019-01-16T12:42:00.621Z,7.37
2019-01-16T12:44:41.808Z,7.17
2019-01-16T12:47:17.450Z,7.47
2019-01-16T12:50:11.082Z,5.73
2019-01-16T12:56:00.849Z,8.80
2019-01-16T12:58:47.941Z,8.60
2019-01-16T13:01:23.282Z,8.07
2019-01-16T13:04:04.463Z,10.17
2019-01-16T13:06:42.960Z,11.67
2019-01-16T13:09:18.187Z,12.80
2019-01-16T13:12:09.833Z,12.57
2019-01-16T13:14:53.788Z,15.53
2019-01-16T13:17:31.730Z,13.50
2019-01-16T13:20:12.555Z,10.90
2019-01-16T13:22:53.766Z,11.33
2019-01-16T13:25:47.438Z,13.13
2019-01-16T13:28:35.428Z,10.63
2019-01-16T13:31:25.541Z,11.30
2019-01-16T13:34:10.359Z,10.10
2019-01-16T13:36:48.568Z,12.73
2019-01-16T13:39:24.008Z,13.70
2019-01-16T13:42:11.178Z,15.17
2019-01-16T13:44:49.065Z,17.73
2019-01-16T13:47:24.359Z,16.17
2019-01-16T13:50:02.537Z,17.00
2019-01-16T13:52:54.213Z,14.30
2019-01-16T13:55:33.207Z,17.10
2019-01-16T13:58:11.526Z,18.40
2019-01-16T14:00:48.687Z,17.33
2019-01-16T14:03:23.838Z,18.97
2019-01-16T14:06:15.488Z,21.17
2019-01-16T14:09:07.222Z,25.10
2019-01-16T14:11:45.157Z,27.27
2019-01-16T14:14:36.720Z,24.77
2019-01-16T14:17:17.939Z,30.17
2019-01-16T14:19:54.730Z,26.87
2019-01-16T14:22:30.139Z,25.67
2019-01-16T14:25:09.064Z,26.37
2019-01-16T14:27:53.547Z,28.60
2019-01-16T14:30:41.151Z,27.10
2019-01-16T14:33:34.410Z,31.27
2019-01-16T14:36:15.612Z,33.63
2019-01-16T14:39:02.790Z,27.60
2019-01-16T14:41:54.312Z,26.17
2019-01-16T14:44:29.616Z,36.70
2019-01-16T14:47:05.120Z,28.87
2019-01-16T14:49:40.414Z,30.80
2019-01-16T14:52:21.753Z,27.17
2019-01-16T14:55:05.873Z,30.07
2019-01-16T14:57:36.673Z,30.47
2019-01-16T15:00:26.245Z,29.67
2019-01-16T15:06:07.981Z,27.50
2019-01-16T15:08:43.260Z,31.90
2019-01-16T15:11:21.545Z,31.80
2019-01-16T15:14:00.269Z,31.93
2019-01-16T15:16:53.910Z,31.47
2019-01-16T15:19:29.212Z,32.57
2019-01-16T15:22:20.875Z,29.30
2019-01-16T15:24:56.294Z,32.53
2019-01-16T15:27:34.354Z,37.43
2019-01-16T15:30:30.786Z,36.57
2019-01-16T15:33:18.359Z,31.10
2019-01-16T15:36:11.787Z,30.07
2019-01-16T15:38:56.149Z,32.43
2019-01-16T15:44:35.297Z,31.37
2019-01-16T15:47:13.374Z,34.33
2019-01-16T15:50:05.617Z,35.90
2019-01-16T15:52:46.782Z,28.70
2019-01-16T15:55:22.407Z,35.17
2019-01-16T15:58:03.411Z,36.67
2019-01-16T16:00:47.630Z,30.03
2019-01-16T16:03:32.042Z,35.43
2019-01-16T16:06:16.262Z,31.57
2019-01-16T16:09:06.446Z,26.27
2019-01-16T16:11:53.939Z,33.10
2019-01-16T16:14:47.039Z,33.47
2019-01-16T16:17:40.451Z,37.13
2019-01-16T16:20:21.897Z,31.70
2019-01-16T16:23:05.930Z,31.13
2019-01-16T16:25:41.170Z,30.00
2019-01-16T16:28:18.975Z,29.17
2019-01-16T16:30:59.939Z,33.63
2019-01-16T16:33:37.809Z,31.67
2019-01-16T16:36:13.433Z,32.77
2019-01-16T16:39:05.333Z,35.83
2019-01-16T16:41:46.746Z,37.23
2019-01-16T16:44:34.007Z,38.10
2019-01-16T16:47:15.407Z,34.90
2019-01-16T16:49:59.326Z,31.67
2019-01-16T16:52:43.671Z,31.63
2019-01-16T16:55:30.833Z,32.17
2019-01-16T16:58:06.203Z,27.60
2019-01-16T17:00:45.053Z,30.23
2019-01-16T17:03:32.103Z,34.00
2019-01-16T17:06:23.563Z,34.23
2019-01-16T17:09:11.151Z,29.30
2019-01-16T17:11:46.433Z,38.33
2019-01-16T17:14:27.279Z,34.20
2019-01-16T17:17:20.972Z,29.17
2019-01-16T17:19:56.320Z,34.17
2019-01-16T17:22:40.528Z,34.27
2019-01-16T17:25:15.807Z,30.93
2019-01-16T17:27:51.110Z,31.53
2019-01-16T17:30:35.092Z,28.67
2019-01-16T17:33:25.193Z,28.17
2019-01-16T17:36:16.734Z,27.67
2019-01-16T17:38:52.011Z,34.40
2019-01-16T17:41:35.870Z,28.40
2019-01-16T17:44:17.262Z,32.57
2019-01-16T17:47:07.459Z,35.23
2019-01-16T17:49:45.774Z,32.70
2019-01-16T17:52:23.620Z,34.20
2019-01-16T17:55:10.871Z,31.47
2019-01-16T17:57:49.213Z,31.90
2019-01-16T18:00:40.481Z,31.60
2019-01-16T18:03:21.951Z,31.33
2019-01-16T18:06:06.115Z,29.70
2019-01-16T18:08:58.463Z,33.20
2019-01-16T18:11:45.675Z,29.47
2019-01-16T18:14:30.211Z,32.10
2019-01-16T18:17:23.723Z,32.37
2019-01-16T18:20:07.614Z,29.40
2019-01-16T18:22:45.272Z,30.40
2019-01-16T18:25:26.057Z,32.63
2019-01-16T18:28:17.887Z,33.43
2019-01-16T18:30:55.760Z,30.60
2019-01-16T18:33:42.788Z,32.83
2019-01-16T18:36:27.296Z,28.87
2019-01-16T18:42:16.972Z,28.57
2019-01-16T18:45:02.669Z,28.20
2019-01-16T18:47:56.442Z,26.37
2019-01-16T18:50:31.767Z,25.67
2019-01-16T18:53:16.275Z,28.93
2019-01-16T18:56:08.445Z,26.97
2019-01-16T18:58:43.697Z,28.40
2019-01-16T19:01:21.959Z,28.63
2019-01-16T19:04:05.956Z,26.83
2019-01-16T19:06:53.089Z,28.07
2019-01-16T19:09:28.325Z,27.20
2019-01-16T19:12:06.503Z,28.13
2019-01-16T19:14:50.737Z,27.37
2019-01-16T19:17:31.618Z,28.17
2019-01-16T19:20:15.832Z,27.23
2019-01-16T19:22:58.167Z,23.73
2019-01-16T19:25:45.507Z,23.20
2019-01-16T19:28:39.034Z,23.23
2019-01-16T19:31:14.443Z,21.07
2019-01-16T19:33:52.637Z,21.80
2019-01-16T19:36:30.758Z,21.00
2019-01-16T19:39:11.253Z,24.47
2019-01-16T19:45:04.356Z,24.57
2019-01-16T19:47:45.613Z,23.63
2019-01-16T19:50:27.049Z,31.30
2019-01-16T19:53:05.253Z,28.33
2019-01-16T19:55:56.989Z,24.10
2019-01-16T19:58:37.982Z,25.73
2019-01-16T20:01:22.441Z,24.23
2019-01-16T20:04:14.434Z,24.33
2019-01-16T20:06:52.530Z,24.57
2019-01-16T20:09:30.587Z,27.87
2019-01-16T20:12:08.614Z,23.97
2019-01-16T20:14:46.451Z,23.97
2019-01-16T20:17:21.869Z,21.53
2019-01-16T20:20:13.408Z,22.33
2019-01-16T20:23:10.960Z,22.73
2019-01-16T20:25:57.675Z,19.37
2019-01-16T20:28:35.545Z,20.03
2019-01-16T20:31:16.852Z,25.53
2019-01-16T20:33:54.699Z,20.80
2019-01-16T20:36:32.905Z,23.63
2019-01-16T20:39:18.041Z,23.17
2019-01-16T20:41:59.578Z,19.17
2019-01-16T20:44:38.033Z,22.27
2019-01-16T20:47:29.448Z,21.60
2019-01-16T20:50:10.463Z,19.07
2019-01-16T20:52:45.783Z,18.60
2019-01-16T20:55:21.020Z,19.53
2019-01-16T20:58:02.405Z,18.37
2019-01-16T21:03:40.095Z,18.43
2019-01-16T21:06:32.072Z,22.57
2019-01-16T21:09:18.348Z,21.40
2019-01-16T21:11:53.634Z,21.70
2019-01-16T21:14:34.466Z,23.13
2019-01-16T21:17:12.549Z,22.20
2019-01-16T21:19:50.394Z,19.90
2019-01-16T21:22:28.421Z,18.10
2019-01-16T21:25:03.823Z,20.20
2019-01-16T21:27:42.086Z,17.57
2019-01-16T21:30:33.790Z,17.47
2019-01-16T21:33:25.512Z,13.33
2019-01-16T21:36:12.924Z,15.63
2019-01-16T21:39:04.659Z,16.20
2019-01-16T21:41:39.915Z,15.77
2019-01-16T21:44:17.969Z,15.63
2019-01-16T21:47:09.751Z,15.57
2019-01-16T21:49:44.974Z,15.33
2019-01-16T21:52:38.512Z,16.13
2019-01-16T21:55:19.609Z,14.80
2019-01-16T21:58:03.821Z,14.10
2019-01-16T22:00:39.174Z,13.87
2019-01-16T22:03:20.035Z,12.37
2019-01-16T22:06:11.708Z,12.37
2019-01-16T22:08:46.978Z,12.80
2019-01-16T22:11:37.554Z,12.07
2019-01-16T22:14:15.768Z,12.07
2019-01-16T22:16:57.500Z,13.33
2019-01-16T22:19:32.892Z,12.43
2019-01-16T22:22:13.899Z,11.77
2019-01-16T22:25:07.301Z,11.37
2019-01-16T22:27:58.723Z,11.37
2019-01-16T22:30:36.856Z,13.03
2019-01-16T22:33:12.260Z,10.53
2019-01-16T22:35:59.438Z,10.50
2019-01-16T22:38:40.637Z,10.57
2019-01-16T22:41:34.164Z,10.07
2019-01-16T22:44:15.473Z,10.47
2019-01-16T22:46:53.494Z,13.53
2019-01-16T22:49:28.761Z,9.90
2019-01-16T22:52:09.936Z,10.07
2019-01-16T22:54:45.238Z,11.37
2019-01-16T22:57:36.513Z,12.40
2019-01-16T23:00:37.270Z,10.27
2019-01-16T23:03:15.661Z,16.60
2019-01-16T23:05:59.646Z,21.23
2019-01-16T23:08:44.004Z,13.77
2019-01-16T23:11:28.300Z,12.03
2019-01-16T23:14:12.786Z,10.27
2019-01-16T23:16:56.894Z,7.50
2019-01-16T23:19:44.244Z,10.57
2019-01-16T23:22:31.662Z,10.27
2019-01-16T23:25:08.336Z,10.73
2019-01-16T23:27:46.440Z,11.10
2019-01-16T23:30:27.628Z,10.03
2019-01-16T23:33:18.166Z,7.83
2019-01-16T23:36:11.799Z,9.17
2019-01-16T23:39:03.471Z,9.20
2019-01-16T23:41:47.776Z,7.30
2019-01-16T23:44:39.595Z,8.77
2019-01-16T23:47:14.894Z,7.30
2019-01-16T23:49:56.098Z,8.97
2019-01-16T23:52:31.320Z,13.47
2019-01-16T23:55:11.670Z,16.57
2019-01-16T23:57:55.914Z,10.73
